Time;durP1;ratioP1;P1;durP2;ratioP2;P2;SDS_P1;SDS_P2;PMS_P1;PMS_P2;Temp;Humidity;BMP_temperature;BMP_pressure;BME280_temperature;BME280_humidity;BME280_pressure;Samples;Min_cycle;Max_cycle;Signal;HPM_P1;HPM_P2
2021/12/11 00:02:20;;;;;;;142.60;62.63;;;;;;;0.11;100.00;100381.44;5124678;27;20072;-68
2021/12/11 00:04:49;;;;;;;125.75;60.65;;;;;;;0.05;100.00;100381.19;5120122;27;20463;-68
2021/12/11 00:07:18;;;;;;;133.27;60.83;;;;;;;0.05;100.00;100394.19;5125433;27;20066;-68
2021/12/11 00:09:49;;;;;;;139.57;61.47;;;;;;;0.01;100.00;100394.03;5122617;27;20030;-68
2021/12/11 00:12:25;;;;;;;145.93;62.10;;;;;;;-0.03;100.00;100393.91;5125281;27;20034;-68
2021/12/11 00:14:55;;;;;;;141.82;62.78;;;;;;;-0.05;100.00;100397.25;5123536;27;20482;-68
2021/12/11 00:17:27;;;;;;;147.75;63.55;;;;;;;-0.05;100.00;100407.66;5124472;27;20035;-68
2021/12/11 00:19:53;;;;;;;160.63;67.03;;;;;;;-0.11;100.00;100408.28;5123719;27;20024;-68
2021/12/11 00:22:22;;;;;;;149.82;63.38;;;;;;;-0.15;100.00;100416.78;5124622;27;20106;-68
2021/12/11 00:24:48;;;;;;;157.45;65.68;;;;;;;-0.16;100.00;100424.50;5122960;27;20091;-68
2021/12/11 00:27:27;;;;;;;187.65;72.47;;;;;;;-0.20;100.00;100428.72;5125121;27;20107;-71
2021/12/11 00:29:53;;;;;;;167.20;69.05;;;;;;;-0.14;100.00;100434.16;5123340;27;20047;-69
2021/12/11 00:32:25;;;;;;;201.10;73.85;;;;;;;-0.11;100.00;100434.28;5124623;27;20039;-71
2021/12/11 00:34:54;;;;;;;188.80;74.57;;;;;;;-0.10;100.00;100441.25;5123269;27;20539;-69
2021/12/11 00:37:23;;;;;;;213.45;78.18;;;;;;;-0.09;100.00;100448.19;5124032;27;20449;-70
2021/12/11 00:39:58;;;;;;;226.57;81.38;;;;;;;-0.07;100.00;100450.91;5122715;27;20027;-71
2021/12/11 00:42:32;;;;;;;205.45;75.32;;;;;;;-0.15;100.00;100452.28;5123700;27;20031;-69
2021/12/11 00:44:59;;;;;;;200.82;72.78;;;;;;;-0.21;100.00;100464.19;5124324;27;20032;-71
2021/12/11 00:47:34;;;;;;;185.35;69.57;;;;;;;-0.24;100.00;100464.06;5123671;27;20031;-68
2021/12/11 00:50:06;;;;;;;190.68;70.20;;;;;;;-0.20;100.00;100465.09;5120943;27;20020;-68
2021/12/11 00:52:35;;;;;;;211.18;78.82;;;;;;;-0.20;100.00;100470.28;5122579;27;20031;-68
2021/12/11 00:55:07;;;;;;;210.20;73.72;;;;;;;-0.19;100.00;100472.94;5124464;27;20028;-68
2021/12/11 00:57:33;;;;;;;205.47;74.77;;;;;;;-0.16;100.00;100482.59;5122293;27;20058;-68
2021/12/11 01:00:16;;;;;;;198.88;71.03;;;;;;;-0.18;100.00;100486.81;5123776;27;20050;-68
2021/12/11 01:02:44;;;;;;;216.77;73.82;;;;;;;-0.24;100.00;100490.03;5117966;27;20028;-68
2021/12/11 01:05:10;;;;;;;198.93;70.68;;;;;;;-0.24;100.00;100494.34;5117811;27;20051;-68
2021/12/11 01:07:37;;;;;;;225.68;70.47;;;;;;;-0.33;100.00;100493.97;5124779;28;20027;-69
2021/12/11 01:10:25;;;;;;;197.63;67.03;;;;;;;-0.30;100.00;100507.09;5122090;28;20028;-69
2021/12/11 01:13:00;;;;;;;177.88;67.35;;;;;;;-0.31;100.00;100507.91;5120157;28;20020;-70
2021/12/11 01:15:33;;;;;;;219.85;71.68;;;;;;;-0.29;100.00;100509.75;5123067;28;20477;-69
2021/12/11 01:18:33;;;;;;;220.75;72.03;;;;;;;-0.31;100.00;100519.16;5123713;28;20023;-68
2021/12/11 01:20:58;;;;;;;224.27;69.45;;;;;;;-0.32;100.00;100516.50;5122226;27;20035;-68
2021/12/11 01:23:47;;;;;;;212.50;67.03;;;;;;;-0.34;100.00;100531.16;5127414;27;20064;-69
2021/12/11 01:26:20;;;;;;;216.35;66.80;;;;;;;-0.36;100.00;100531.09;5122406;27;20027;-68
2021/12/11 01:28:46;;;;;;;210.85;67.85;;;;;;;-0.38;100.00;100533.63;5122780;27;20084;-68
2021/12/11 01:31:16;;;;;;;196.20;67.45;;;;;;;-0.32;100.00;100542.50;5128658;27;20154;-69
2021/12/11 01:33:42;;;;;;;211.65;69.13;;;;;;;-0.38;100.00;100544.00;5125558;27;20085;-68
2021/12/11 01:36:09;;;;;;;188.05;66.78;;;;;;;-0.37;100.00;100548.38;5128706;27;20023;-68
2021/12/11 01:38:35;;;;;;;170.32;63.05;;;;;;;-0.45;100.00;100562.75;5125542;27;20055;-68
2021/12/11 01:41:05;;;;;;;161.02;62.70;;;;;;;-0.51;100.00;100574.56;5128089;27;20047;-68
2021/12/11 01:43:34;;;;;;;203.98;64.43;;;;;;;-0.50;100.00;100577.22;5126277;27;20020;-68
2021/12/11 01:46:05;;;;;;;213.13;63.10;;;;;;;-0.48;100.00;100579.88;5127714;27;20102;-68
2021/12/11 01:48:47;;;;;;;189.57;62.38;;;;;;;-0.44;100.00;100587.00;5125889;27;20110;-69
2021/12/11 01:51:24;;;;;;;240.05;68.70;;;;;;;-0.46;100.00;100593.84;5121691;27;20020;-68
2021/12/11 01:53:59;;;;;;;192.80;61.17;;;;;;;-0.45;100.00;100599.09;5123685;27;20023;-69
2021/12/11 01:56:27;;;;;;;247.65;69.68;;;;;;;-0.48;100.00;100604.16;5127115;27;20031;-68
2021/12/11 01:59:05;;;;;;;237.85;66.28;;;;;;;-0.49;100.00;100617.97;5126029;27;20479;-68
2021/12/11 02:01:30;;;;;;;201.80;62.00;;;;;;;-0.46;100.00;100623.28;5126153;27;20034;-69
2021/12/11 02:03:57;;;;;;;226.52;65.18;;;;;;;-0.42;100.00;100639.94;5126943;27;20110;-68
2021/12/11 02:06:28;;;;;;;215.45;65.07;;;;;;;-0.41;100.00;100636.50;5127050;27;20038;-68
2021/12/11 02:08:53;;;;;;;209.48;64.40;;;;;;;-0.37;100.00;100639.28;5126303;27;20027;-68
2021/12/11 02:11:22;;;;;;;194.00;63.90;;;;;;;-0.27;100.00;100642.31;5127460;27;20098;-69
2021/12/11 02:13:55;;;;;;;190.23;64.70;;;;;;;-0.19;100.00;100644.44;5125277;27;20030;-68
2021/12/11 02:16:23;;;;;;;187.02;62.65;;;;;;;-0.14;100.00;100642.03;5127358;27;20033;-67
2021/12/11 02:18:56;;;;;;;204.57;63.78;;;;;;;-0.14;100.00;100646.34;5125443;27;20435;-68
2021/12/11 02:21:32;;;;;;;167.65;60.95;;;;;;;-0.14;100.00;100652.44;5108632;27;20022;-68
2021/12/11 02:24:10;;;;;;;156.43;58.10;;;;;;;-0.22;100.00;100662.50;5126542;27;20048;-68
2021/12/11 02:26:39;;;;;;;166.80;60.40;;;;;;;-0.28;100.00;100664.78;5124778;27;20027;-68
2021/12/11 02:29:16;;;;;;;157.77;57.13;;;;;;;-0.36;100.00;100664.44;5126965;27;20031;-69
2021/12/11 02:31:51;;;;;;;148.77;57.72;;;;;;;-0.42;100.00;100671.09;5119636;27;20424;-70
2021/12/11 02:34:40;;;;;;;128.77;53.88;;;;;;;-0.39;100.00;100681.63;5121829;27;20020;-69
2021/12/11 02:37:11;;;;;;;141.35;56.47;;;;;;;-0.36;100.00;100684.34;5124384;27;20049;-68
2021/12/11 02:39:44;;;;;;;129.35;53.00;;;;;;;-0.31;100.00;100689.75;5127535;27;20030;-68
2021/12/11 02:42:35;;;;;;;129.18;54.05;;;;;;;-0.28;100.00;100700.28;5120141;27;20031;-70
2021/12/11 02:45:11;;;;;;;135.05;54.65;;;;;;;-0.33;100.00;100694.88;5125419;27;20035;-69
2021/12/11 02:47:41;;;;;;;141.23;56.03;;;;;;;-0.41;100.00;100693.63;5123989;27;20062;-68
2021/12/11 02:50:25;;;;;;;139.88;54.72;;;;;;;-0.50;100.00;100698.41;5127218;27;20058;-69
2021/12/11 02:53:06;;;;;;;129.68;51.97;;;;;;;-0.50;100.00;100699.28;5122445;27;20069;-68
2021/12/11 02:55:43;;;;;;;120.10;50.85;;;;;;;-0.55;100.00;100706.88;5105701;27;20039;-67
2021/12/11 02:58:16;;;;;;;133.48;52.78;;;;;;;-0.60;100.00;100712.66;5119465;27;20108;-68
2021/12/11 03:00:55;;;;;;;125.03;51.05;;;;;;;-0.69;100.00;100709.63;5120129;27;20020;-68
2021/12/11 03:03:30;;;;;;;130.43;52.35;;;;;;;-0.68;100.00;100719.19;5122254;27;20031;-67
2021/12/11 03:06:11;;;;;;;120.18;50.85;;;;;;;-0.69;100.00;100717.44;5125793;27;20050;-68
2021/12/11 03:08:36;;;;;;;132.40;53.08;;;;;;;-0.68;100.00;100725.28;5127241;27;20063;-68
2021/12/11 03:11:07;;;;;;;145.65;53.65;;;;;;;-0.62;100.00;100732.47;5124398;27;20050;-68
2021/12/11 03:13:34;;;;;;;137.90;51.85;;;;;;;-0.57;100.00;100734.50;5126265;27;20028;-68
2021/12/11 03:16:01;;;;;;;143.73;54.65;;;;;;;-0.51;100.00;100738.19;5124695;27;20048;-68
2021/12/11 03:18:27;;;;;;;159.50;55.70;;;;;;;-0.39;100.00;100736.19;5125019;27;20035;-70
2021/12/11 03:20:53;;;;;;;179.65;58.33;;;;;;;-0.36;100.00;100732.00;5125773;27;20023;-68
2021/12/11 03:23:19;;;;;;;161.25;56.97;;;;;;;-0.29;100.00;100737.47;5123793;27;20405;-68
2021/12/11 03:25:45;;;;;;;140.93;53.78;;;;;;;-0.31;100.00;100750.38;5126880;27;20121;-68
2021/12/11 03:28:11;;;;;;;150.48;56.15;;;;;;;-0.29;100.00;100750.47;5123508;27;20447;-69
2021/12/11 03:30:44;;;;;;;142.63;54.90;;;;;;;-0.22;100.00;100750.84;5126163;27;20076;-69
2021/12/11 03:33:15;;;;;;;147.18;54.17;;;;;;;-0.24;100.00;100756.78;5118940;27;20076;-68
2021/12/11 03:35:42;;;;;;;143.65;55.15;;;;;;;-0.23;100.00;100750.78;5118939;27;20028;-69
2021/12/11 03:38:10;;;;;;;157.43;56.42;;;;;;;-0.17;100.00;100756.25;5126452;27;20434;-68
2021/12/11 03:40:36;;;;;;;157.68;57.97;;;;;;;-0.14;100.00;100756.38;5123611;27;20043;-68
2021/12/11 03:43:06;;;;;;;154.88;58.40;;;;;;;-0.04;100.00;100763.78;5125037;27;20019;-68
2021/12/11 03:45:35;;;;;;;180.82;63.97;;;;;;;0.05;100.00;100765.91;5124090;27;20023;-69
2021/12/11 03:48:09;;;;;;;174.45;62.38;;;;;;;0.09;100.00;100769.56;5125139;27;20032;-68
2021/12/11 03:50:35;;;;;;;165.38;61.30;;;;;;;0.14;100.00;100766.31;5123199;27;20051;-69
2021/12/11 03:53:01;;;;;;;145.00;57.05;;;;;;;0.08;100.00;100763.44;5125092;27;20062;-68
2021/12/11 03:55:32;;;;;;;137.60;54.50;;;;;;;0.07;100.00;100773.78;5124651;27;20476;-68
2021/12/11 03:58:00;;;;;;;147.88;56.28;;;;;;;0.10;100.00;100776.50;5124402;27;20475;-68
2021/12/11 04:00:33;;;;;;;143.48;56.95;;;;;;;0.14;100.00;100778.44;5124816;27;20034;-70
2021/12/11 04:03:03;;;;;;;;;;;;;;;0.18;100.00;100780.38;5124801;27;20378;-68
2021/12/11 04:05:31;;;;;;;143.90;56.63;;;;;;;0.21;100.00;100777.03;5124044;27;19912;-68
2021/12/11 04:07:57;;;;;;;147.65;55.63;;;;;;;0.26;100.00;100784.22;5124332;27;20084;-68
2021/12/11 04:10:23;;;;;;;146.60;58.50;;;;;;;0.31;100.00;100784.41;5124853;27;20027;-68
2021/12/11 04:12:49;;;;;;;156.85;57.10;;;;;;;0.31;100.00;100787.88;5123121;27;20111;-68
2021/12/11 04:15:16;;;;;;;148.68;58.78;;;;;;;0.33;100.00;100791.44;5125696;27;20024;-68
2021/12/11 04:17:42;;;;;;;139.13;57.05;;;;;;;0.34;100.00;100798.44;5118372;27;20034;-68
2021/12/11 04:20:12;;;;;;;140.85;55.72;;;;;;;0.38;100.00;100795.97;5125284;27;20462;-69
2021/12/11 04:22:38;;;;;;;138.05;53.60;;;;;;;0.37;100.00;100800.28;5104077;27;20028;-68
2021/12/11 04:25:06;;;;;;;138.93;56.05;;;;;;;0.43;100.00;100816.16;5125169;27;20435;-69
2021/12/11 04:27:32;;;;;;;141.35;54.47;;;;;;;0.45;100.00;100809.34;5122916;27;20396;-68
2021/12/11 04:29:58;;;;;;;141.60;55.30;;;;;;;0.45;100.00;100811.94;5123619;27;20118;-68
2021/12/11 04:32:26;;;;;;;158.25;58.97;;;;;;;0.46;100.00;100816.28;5124313;27;20087;-69
2021/12/11 04:34:51;;;;;;;160.63;58.72;;;;;;;0.50;100.00;100813.00;5122763;27;20026;-68
2021/12/11 04:37:23;;;;;;;162.35;60.00;;;;;;;0.56;100.00;100820.19;5125056;27;20027;-69
2021/12/11 04:39:57;;;;;;;160.05;60.55;;;;;;;0.61;100.00;100821.31;5122695;27;20106;-70
2021/12/11 04:45:22;;;;;;;160.90;57.97;;;;;;;0.66;100.00;100831.91;5019310;28;20038;-69
2021/12/11 04:47:54;;;;;;;155.80;57.70;;;;;;;0.69;100.00;100843.34;5019754;28;20125;-71
2021/12/11 04:50:35;;;;;;;156.70;57.35;;;;;;;0.66;100.00;100845.81;5021765;28;20370;-71
2021/12/11 04:53:03;;;;;;;150.45;57.22;;;;;;;0.72;100.00;100845.19;5021161;28;20477;-71
2021/12/11 04:55:58;;;;;;;148.93;57.78;;;;;;;0.77;100.00;100855.78;5019614;28;20090;-71
2021/12/11 04:58:43;;;;;;;152.10;57.95;;;;;;;0.78;100.00;100863.66;5023030;28;20049;-69
2021/12/11 05:01:33;;;;;;;160.30;59.20;;;;;;;0.78;100.00;100863.66;5022317;28;20117;-69
2021/12/11 05:11:55;;;;;;;163.65;59.60;;;;;;;0.86;100.00;100872.72;5022616;28;20049;-70
2021/12/11 05:14:24;;;;;;;160.05;58.53;;;;;;;0.86;100.00;100874.44;5018663;28;20104;-71
2021/12/11 05:16:49;;;;;;;159.10;56.80;;;;;;;0.85;100.00;100870.94;5019226;28;20042;-70
2021/12/11 05:19:15;;;;;;;147.55;58.33;;;;;;;0.88;100.00;100878.00;5022380;28;20120;-71
2021/12/11 05:21:41;;;;;;;165.95;59.70;;;;;;;0.91;100.00;100885.94;5045418;28;20114;-69
2021/12/11 05:24:09;;;;;;;155.23;59.08;;;;;;;0.96;100.00;100893.94;5121761;28;20020;-70
2021/12/11 05:26:36;;;;;;;156.43;58.85;;;;;;;0.99;100.00;100894.06;5124153;28;20024;-70
2021/12/11 05:29:03;;;;;;;162.82;60.80;;;;;;;0.98;100.00;100892.31;5122377;28;20027;-68
2021/12/11 05:31:29;;;;;;;162.85;60.05;;;;;;;0.99;100.00;100894.97;5122921;28;20348;-68
2021/12/11 05:33:54;;;;;;;167.55;57.67;;;;;;;0.99;100.00;100894.06;5123645;28;20028;-68
2021/12/11 05:36:20;;;;;;;160.50;58.90;;;;;;;1.00;100.00;100891.53;5121691;28;20043;-68
2021/12/11 05:38:48;;;;;;;170.98;61.03;;;;;;;1.04;100.00;100897.78;5124640;28;20163;-67
2021/12/11 05:41:15;;;;;;;169.95;59.45;;;;;;;1.04;100.00;100906.47;5121700;28;20424;-67
2021/12/11 05:43:41;;;;;;;171.88;62.25;;;;;;;1.04;100.00;100910.81;5117017;28;20024;-71
2021/12/11 05:46:10;;;;;;;172.60;62.40;;;;;;;1.04;100.00;100919.50;5124117;28;20023;-70
2021/12/11 05:48:36;;;;;;;168.38;60.10;;;;;;;1.05;100.00;100915.19;5122027;28;20027;-70
2021/12/11 05:51:04;;;;;;;172.90;61.50;;;;;;;1.08;100.00;100919.63;5123743;28;20028;-70
2021/12/11 05:53:31;;;;;;;166.52;60.65;;;;;;;1.08;100.00;100924.84;5122594;28;20019;-71
2021/12/11 05:56:00;;;;;;;178.13;62.58;;;;;;;1.11;100.00;100923.28;5122879;28;20073;-70
2021/12/11 06:01:31;;;;;;;168.43;62.63;;;;;;;1.16;100.00;100918.25;5019318;28;20042;-70
2021/12/11 06:04:04;;;;;;;157.48;59.67;;;;;;;1.14;100.00;100920.78;5020374;28;20053;-71
2021/12/11 06:06:29;;;;;;;;;;;;;;;1.12;100.00;100921.53;5022414;28;20058;-72
2021/12/11 06:08:55;;;;;;;154.02;58.75;;;;;;;1.08;100.00;100927.44;5024013;28;19913;-70
2021/12/11 06:11:20;;;;;;;155.63;62.75;;;;;;;1.13;100.00;100928.53;5022608;28;20041;-69
2021/12/11 06:13:46;;;;;;;157.68;59.85;;;;;;;1.14;100.00;100933.81;5025166;28;20484;-68
2021/12/11 06:16:14;;;;;;;165.98;63.33;;;;;;;1.16;100.00;100934.75;5021892;28;20058;-68
2021/12/11 06:18:39;;;;;;;165.13;64.88;;;;;;;1.14;100.00;100941.63;5025017;28;20042;-68
2021/12/11 06:21:05;;;;;;;161.77;60.80;;;;;;;1.13;100.00;100939.84;5022453;28;20432;-68
2021/12/11 06:23:30;;;;;;;156.60;64.93;;;;;;;1.19;100.00;100944.44;5023515;28;20038;-68
2021/12/11 06:25:56;;;;;;;171.70;63.80;;;;;;;1.18;100.00;100953.06;5023721;28;20033;-68
2021/12/11 06:28:23;;;;;;;178.15;66.70;;;;;;;1.23;100.00;100953.28;5022207;28;20061;-71
2021/12/11 06:30:49;;;;;;;180.40;65.82;;;;;;;1.26;100.00;100958.63;5024442;28;20049;-71
2021/12/11 06:33:15;;;;;;;175.45;67.75;;;;;;;1.30;100.00;100964.03;5021691;28;20393;-71
2021/12/11 06:35:48;;;;;;;178.88;63.95;;;;;;;1.31;100.00;100972.72;5024568;28;20033;-71
2021/12/11 06:38:18;;;;;;;193.77;69.70;;;;;;;1.41;100.00;100974.03;5092123;27;20107;-70
2021/12/11 06:40:44;;;;;;;189.57;68.05;;;;;;;1.46;100.00;100975.13;5120482;27;20051;-71
2021/12/11 06:43:11;;;;;;;212.00;73.93;;;;;;;1.48;100.00;100973.47;5127414;27;20027;-70
2021/12/11 06:45:37;;;;;;;206.32;70.60;;;;;;;1.49;100.00;100986.56;5124885;27;20102;-71
2021/12/11 06:48:03;;;;;;;227.05;71.32;;;;;;;1.51;100.00;100989.22;5126739;27;20020;-70
2021/12/11 06:50:28;;;;;;;226.95;76.68;;;;;;;1.55;100.00;100991.16;5125937;27;20092;-71
2021/12/11 06:52:54;;;;;;;227.13;74.10;;;;;;;1.60;100.00;100999.16;5124929;27;20032;-71
2021/12/11 06:55:21;;;;;;;238.38;77.95;;;;;;;1.62;100.00;101002.75;5127254;27;20023;-68
2021/12/11 06:57:47;;;;;;;212.38;73.30;;;;;;;1.65;100.00;101016.78;5104873;28;20151;-68
2021/12/11 07:00:16;;;;;;;230.63;74.07;;;;;;;1.65;100.00;101008.09;5119658;27;20479;-68
2021/12/11 07:02:42;;;;;;;209.10;71.65;;;;;;;1.70;100.00;101014.38;5119835;27;20058;-68
2021/12/11 07:05:08;;;;;;;227.10;76.70;;;;;;;1.70;100.00;101007.47;5126564;27;20059;-69
2021/12/11 07:07:35;;;;;;;204.52;74.63;;;;;;;1.76;100.00;101014.63;5124751;27;20031;-68
2021/12/11 07:10:05;;;;;;;210.00;78.10;;;;;;;1.80;100.00;101023.47;5125764;27;20043;-68
2021/12/11 07:12:31;;;;;;;216.10;80.82;;;;;;;1.84;100.00;101028.00;5124923;27;20537;-67
2021/12/11 07:14:57;;;;;;;204.07;78.53;;;;;;;1.88;100.00;101022.09;5124788;27;20110;-68
2021/12/11 07:17:23;;;;;;;198.90;81.22;;;;;;;1.92;100.00;101024.00;5125718;27;20076;-69
2021/12/11 07:19:48;;;;;;;200.40;79.30;;;;;;;1.92;100.00;101029.22;5123547;27;20042;-68
2021/12/11 07:22:14;;;;;;;191.75;74.15;;;;;;;1.94;100.00;101027.56;5126727;27;20042;-68
2021/12/11 07:24:44;;;;;;;187.20;76.38;;;;;;;1.94;100.00;101030.19;5123541;27;20028;-67
2021/12/11 07:27:11;;;;;;;184.32;80.72;;;;;;;1.99;100.00;101038.19;5126167;27;20522;-68
2021/12/11 07:29:39;;;;;;;180.77;80.07;;;;;;;2.02;100.00;101054.84;5104937;27;20065;-68
2021/12/11 07:32:06;;;;;;;161.82;72.85;;;;;;;2.08;100.00;101055.13;5126120;27;20030;-68
2021/12/11 07:34:31;;;;;;;165.60;69.68;;;;;;;2.13;100.00;101049.22;5124236;27;20023;-68
2021/12/11 07:36:58;;;;;;;155.15;70.95;;;;;;;2.16;100.00;101065.00;5124623;27;20053;-68
2021/12/11 07:39:24;;;;;;;159.25;73.13;;;;;;;2.18;100.00;101060.72;5125525;27;20080;-68
2021/12/11 07:41:52;;;;;;;134.20;64.43;;;;;;;2.21;100.00;101068.66;5123650;27;20028;-68
2021/12/11 07:44:19;;;;;;;133.88;63.05;;;;;;;2.22;100.00;101066.13;5126053;27;20492;-71
2021/12/11 07:46:45;;;;;;;138.25;63.92;;;;;;;2.23;100.00;101072.25;5123003;27;20028;-69
2021/12/11 07:49:11;;;;;;;126.32;62.88;;;;;;;2.29;100.00;101067.28;5126131;27;20027;-71
2021/12/11 07:51:37;;;;;;;118.30;57.30;;;;;;;2.33;100.00;101079.63;5123403;27;20113;-67
2021/12/11 07:54:04;;;;;;;115.18;55.28;;;;;;;2.36;100.00;101079.75;5124807;27;20024;-68
2021/12/11 07:56:29;;;;;;;105.75;51.35;;;;;;;2.39;100.00;101079.88;5124429;27;20030;-69
2021/12/11 07:58:59;;;;;;;104.07;50.80;;;;;;;2.43;100.00;101092.22;5123530;27;20107;-67
2021/12/11 08:01:25;;;;;;;93.90;47.90;;;;;;;2.48;100.00;101087.19;5125253;27;20050;-68
2021/12/11 08:03:51;;;;;;;91.45;46.70;;;;;;;2.51;100.00;101105.59;5123001;27;20479;-67
2021/12/11 08:06:16;;;;;;;89.78;46.22;;;;;;;2.58;100.00;101094.56;5126095;27;20054;-67
2021/12/11 08:08:44;;;;;;;82.88;43.30;;;;;;;2.59;100.00;101104.19;5122464;27;20020;-68
2021/12/11 08:11:13;;;;;;;74.10;42.58;;;;;;;2.58;100.00;101101.53;5125406;27;20015;-68
2021/12/11 08:13:41;;;;;;;73.72;40.45;;;;;;;2.57;100.00;101111.06;5122797;27;20068;-71
2021/12/11 08:16:07;;;;;;;64.18;36.17;;;;;;;2.60;100.00;101116.41;5125025;27;20012;-71
2021/12/11 08:18:32;;;;;;;69.25;35.63;;;;;;;2.63;100.00;101120.84;5123505;27;20381;-70
2021/12/11 08:20:58;;;;;;;65.32;32.90;;;;;;;2.65;100.00;101124.44;5123575;27;20023;-71
2021/12/11 08:23:24;;;;;;;57.65;30.27;;;;;;;2.68;100.00;101126.25;5125010;27;20058;-71
2021/12/11 08:25:50;;;;;;;56.72;27.83;;;;;;;2.78;100.00;101128.41;5122622;27;20024;-71
2021/12/11 08:28:23;;;;;;;61.65;27.77;;;;;;;2.84;100.00;101133.91;5125693;27;20019;-68
2021/12/11 08:30:52;;;;;;;48.38;25.77;;;;;;;2.94;100.00;101137.75;5117938;27;20482;-68
2021/12/11 08:33:19;;;;;;;52.45;24.92;;;;;;;3.03;100.00;101156.44;5125557;27;20031;-68
2021/12/11 08:35:45;;;;;;;51.13;24.65;;;;;;;3.12;100.00;101151.56;5122180;27;20370;-68
2021/12/11 08:38:11;;;;;;;50.22;22.60;;;;;;;3.20;100.00;101158.81;5125055;27;20026;-69
2021/12/11 08:40:42;;;;;;;45.42;20.35;;;;;;;3.24;100.00;101153.75;5123182;27;20027;-68
2021/12/11 08:43:09;;;;;;;42.33;19.13;;;;;;;3.31;100.00;101165.34;5124864;27;20102;-68
2021/12/11 08:45:47;;;;;;;43.85;18.63;;;;;;;3.35;100.00;101169.88;5123011;27;20098;-68
2021/12/11 08:48:19;;;;;;;38.63;17.42;;;;;;;3.46;100.00;101163.31;5125762;27;20019;-68
2021/12/11 08:50:49;;;;;;;42.15;16.33;;;;;;;3.41;100.00;101171.84;5118591;27;20115;-68
2021/12/11 08:53:16;;;;;;;37.25;15.00;;;;;;;3.49;100.00;101181.75;5118851;27;20051;-68
2021/12/11 08:55:47;;;;;;;37.33;14.45;;;;;;;3.67;100.00;101173.72;5126310;27;20058;-68
2021/12/11 08:58:15;;;;;;;35.70;13.82;;;;;;;3.73;100.00;101182.59;5122795;27;20031;-68
2021/12/11 09:00:50;;;;;;;36.25;13.45;;;;;;;3.89;100.00;101191.91;5126110;27;20020;-68
2021/12/11 09:03:38;;;;;;;32.67;11.48;;;;;;;3.98;100.00;101187.94;5119093;27;20083;-68
2021/12/11 09:06:17;;;;;;;34.35;11.90;;;;;;;4.18;100.00;101204.34;5146034;27;20031;-68
2021/12/11 09:08:48;;;;;;;32.88;11.40;;;;;;;4.32;100.00;101206.56;5144037;27;20031;-68
2021/12/11 09:11:19;;;;;;;29.95;10.60;;;;;;;4.43;100.00;101213.09;5139559;28;20020;-68
2021/12/11 09:13:53;;;;;;;29.10;9.38;;;;;;;4.60;100.00;101223.25;5138871;28;20075;-69
2021/12/11 09:16:28;;;;;;;31.48;9.68;;;;;;;4.56;100.00;101235.34;5139973;28;20023;-68
2021/12/11 09:19:17;;;;;;;33.15;11.20;;;;;;;4.74;100.00;101242.94;5145259;28;20023;-69
2021/12/11 09:21:53;;;;;;;28.92;9.90;;;;;;;4.96;100.00;101249.81;5141488;28;20023;-71
2021/12/11 09:24:27;;;;;;;30.45;9.55;;;;;;;5.29;100.00;101250.91;5118202;28;20062;-71
2021/12/11 09:26:55;;;;;;;30.35;8.95;;;;;;;5.40;100.00;101260.88;5124506;28;20546;-70
2021/12/11 09:29:25;;;;;;;29.85;8.70;;;;;;;5.52;100.00;101260.38;5121874;28;20020;-69
2021/12/11 09:32:23;;;;;;;30.60;8.38;;;;;;;5.65;100.00;101268.63;5124671;28;20030;-70
2021/12/11 09:34:57;;;;;;;27.38;7.95;;;;;;;5.88;100.00;101278.13;5118430;28;20039;-70
2021/12/11 09:37:24;;;;;;;25.65;7.22;;;;;;;5.90;100.00;101273.78;5124087;28;20023;-70
2021/12/11 09:39:56;;;;;;;27.27;7.20;;;;;;;5.90;100.00;101286.91;5121591;28;20027;-73
2021/12/11 09:42:21;;;;;;;24.00;6.68;;;;;;;5.85;100.00;101288.47;5128033;27;20031;-71
2021/12/11 09:44:49;;;;;;;27.20;7.83;;;;;;;5.77;100.00;101297.88;5125776;27;20023;-71
2021/12/11 09:47:22;;;;;;;27.27;7.82;;;;;;;5.64;100.00;101301.84;5121341;27;20274;-69
2021/12/11 09:49:56;;;;;;;24.73;7.32;;;;;;;5.59;100.00;101312.19;5121478;27;20023;-69
2021/12/11 09:52:23;;;;;;;26.20;7.40;;;;;;;5.50;100.00;101314.50;5122816;27;20054;-71
2021/12/11 09:54:59;;;;;;;25.48;7.30;;;;;;;5.50;100.00;101319.75;5128396;27;20537;-69
2021/12/11 09:57:29;;;;;;;25.40;7.00;;;;;;;5.43;100.00;101325.63;5126454;27;20027;-69
2021/12/11 09:59:57;;;;;;;26.05;6.88;;;;;;;5.44;100.00;101319.53;5108414;27;20035;-70
2021/12/11 10:02:27;;;;;;;24.38;6.70;;;;;;;5.44;100.00;101319.53;5134849;27;20075;-71
2021/12/11 10:05:00;;;;;;;26.25;7.03;;;;;;;5.40;100.00;101315.94;5128517;27;20022;-71
2021/12/11 10:07:36;;;;;;;24.17;6.57;;;;;;;5.36;100.00;101321.03;5127553;27;20026;-71
2021/12/11 10:10:13;;;;;;;23.65;6.28;;;;;;;5.39;100.00;101331.63;5124981;27;20370;-71
2021/12/11 10:12:42;;;;;;;28.05;7.20;;;;;;;5.36;100.00;101332.41;5127421;27;20026;-70
2021/12/11 10:15:28;;;;;;;27.40;7.50;;;;;;;5.32;100.00;101340.13;5126101;27;20050;-69
2021/12/11 10:18:02;;;;;;;27.15;7.13;;;;;;;5.23;100.00;101341.59;5122573;27;20030;-70
2021/12/11 10:20:39;;;;;;;23.65;6.72;;;;;;;5.28;100.00;101346.97;5126847;27;20037;-70
2021/12/11 10:23:08;;;;;;;26.15;7.18;;;;;;;5.41;100.00;101353.53;5126532;27;20424;-69
2021/12/11 10:25:35;;;;;;;23.83;7.18;;;;;;;5.50;100.00;101353.84;5126016;27;20023;-70
2021/12/11 10:28:06;;;;;;;23.98;6.85;;;;;;;5.50;100.00;101356.47;5126436;27;20031;-68
2021/12/11 10:30:35;;;;;;;23.48;6.95;;;;;;;5.72;100.00;101362.41;5125611;27;20039;-71
2021/12/11 10:33:02;;;;;;;25.55;6.90;;;;;;;6.30;100.00;101367.75;5126150;27;20030;-68
2021/12/11 10:35:33;;;;;;;24.02;6.20;;;;;;;7.05;100.00;101361.09;5126807;27;20027;-68
2021/12/11 10:38:00;;;;;;;24.02;6.28;;;;;;;7.21;100.00;101368.56;5125644;27;20037;-68
2021/12/11 10:40:35;;;;;;;24.75;6.20;;;;;;;7.23;100.00;101373.88;5126789;27;20473;-67
2021/12/11 10:43:17;;;;;;;24.35;5.78;;;;;;;7.97;100.00;101370.44;5125978;27;20019;-68
2021/12/11 10:45:43;;;;;;;24.58;5.80;;;;;;;8.30;100.00;101378.22;5124543;27;20106;-71
2021/12/11 10:48:13;;;;;;;23.80;5.22;;;;;;;8.77;100.00;101377.47;5127328;27;20382;-71
2021/12/11 10:50:41;;;;;;;21.50;5.50;;;;;;;8.96;97.59;101385.78;5125694;27;20026;-72
2021/12/11 10:53:12;;;;;;;24.23;5.70;;;;;;;9.25;93.28;101386.31;5123493;27;20058;-71
2021/12/11 10:55:38;;;;;;;21.52;5.40;;;;;;;9.11;91.91;101378.13;5128699;27;20028;-71
2021/12/11 10:58:08;;;;;;;21.42;5.57;;;;;;;8.72;91.98;101394.94;5126559;27;20042;-70
2021/12/11 11:00:44;;;;;;;24.67;6.32;;;;;;;8.16;94.68;101395.47;5124828;27;20573;-71
2021/12/11 11:03:10;;;;;;;22.02;5.85;;;;;;;7.64;97.60;101406.50;5122837;27;20147;-69
2021/12/11 11:05:36;;;;;;;21.70;5.53;;;;;;;7.27;100.00;101404.66;5120008;27;20502;-71
2021/12/11 11:08:06;;;;;;;24.08;6.15;;;;;;;7.08;100.00;101414.69;5126704;27;20071;-67
2021/12/11 11:10:37;;;;;;;24.08;6.28;;;;;;;6.89;100.00;101423.78;5124228;27;20370;-70
2021/12/11 11:13:07;;;;;;;28.00;6.93;;;;;;;6.88;100.00;101415.84;5126784;27;20505;-66
2021/12/11 11:15:35;;;;;;;28.42;7.25;;;;;;;6.50;100.00;101432.28;5123916;27;20498;-67
2021/12/11 11:18:01;;;;;;;23.55;7.63;;;;;;;6.52;100.00;101427.06;5126516;27;20027;-71
2021/12/11 11:20:32;;;;;;;27.52;8.15;;;;;;;6.42;100.00;101431.13;5124622;27;20026;-68
2021/12/11 11:22:59;;;;;;;26.80;8.20;;;;;;;6.33;100.00;101444.88;5126189;27;20032;-67
2021/12/11 11:25:31;;;;;;;26.20;8.57;;;;;;;6.39;100.00;101445.09;5124690;27;20034;-68
2021/12/11 11:28:06;;;;;;;28.95;8.55;;;;;;;6.57;100.00;101447.38;5125690;27;20031;-68
2021/12/11 11:30:36;;;;;;;27.38;8.32;;;;;;;6.50;100.00;101458.53;5123502;27;20036;-68
2021/12/11 11:33:03;;;;;;;26.98;7.82;;;;;;;6.44;100.00;101442.59;5126606;27;20076;-68